Time;durP1;ratioP1;P1;durP2;ratioP2;P2;SDS_P1;SDS_P2;PMS_P1;PMS_P2;Temp;Humidity;BMP_temperature;BMP_pressure;BME280_temperature;BME280_humidity;BME280_pressure;Samples;Min_cycle;Max_cycle;Signal;HPM_P1;HPM_P2
2022/10/06 00:01:19;;;;;;;9.52;2.40;;;;;;;;;;5074941;28;20394;-73
2022/10/06 00:03:46;;;;;;;10.55;2.25;;;;;;;;;;5074828;28;20912;-73
2022/10/06 00:06:13;;;;;;;10.38;2.13;;;;;;;;;;5088224;28;20414;-73
2022/10/06 00:08:41;;;;;;;9.38;2.63;;;13.50;99.90;;;;;;5073824;28;20808;-73
2022/10/06 00:11:07;;;;;;;11.00;2.10;;;;;;;;;;5107692;28;20437;-73
2022/10/06 00:13:34;;;;;;;10.75;2.40;;;;;;;;;;5059817;28;20994;-73
2022/10/06 00:16:00;;;;;;;13.30;2.20;;;;;;;;;;5090843;28;20441;-73
2022/10/06 00:18:27;;;;;;;9.18;2.00;;;;;;;;;;5073197;28;20441;-71
2022/10/06 00:20:57;;;;;;;13.33;2.70;;;;;;;;;;5072281;28;20583;-73
2022/10/06 00:23:23;;;;;;;9.27;1.73;;;;;;;;;;5091368;28;20486;-73
2022/10/06 00:25:50;;;;;;;10.98;2.40;;;;;;;;;;5073486;28;20413;-73
2022/10/06 00:28:15;;;;;;;11.30;2.53;;;13.20;99.90;;;;;;5089304;28;20884;-73
2022/10/06 00:30:42;;;;;;;7.30;1.90;;;;;;;;;;5073741;28;20516;-73
2022/10/06 00:33:11;;;;;;;11.73;2.30;;;;;;;;;;5072753;28;20607;-73
2022/10/06 00:35:37;;;;;;;11.77;2.13;;;;;;;;;;5074213;28;20470;-73
2022/10/06 00:38:03;;;;;;;10.85;2.10;;;;;;;;;;5073006;28;20425;-73
2022/10/06 00:40:30;;;;;;;11.05;2.03;;;;;;;;;;5106634;28;20410;-73
2022/10/06 00:42:58;;;;;;;10.25;2.08;;;;;;;;;;5072667;28;20424;-73
2022/10/06 00:45:44;;;;;;;13.48;2.47;;;;;;;;;;5071929;28;20410;-73
2022/10/06 00:48:21;;;;;;;9.48;2.00;;;13.10;99.90;;;;;;5073289;28;20418;-73
2022/10/06 00:50:47;;;;;;;10.27;2.10;;;;;;;;;;5091196;28;20404;-73
2022/10/06 00:53:14;;;;;;;10.27;2.00;;;13.10;99.90;;;;;;5070761;28;20426;-72
2022/10/06 00:55:40;;;;;;;12.10;2.47;;;;;;;;;;5107139;28;20572;-73
2022/10/06 00:58:07;;;;;;;9.57;1.92;;;;;;;;;;5088616;28;20424;-72
2022/10/06 01:00:33;;;;;;;9.63;2.08;;;;;;;;;;5074207;28;20404;-73
2022/10/06 01:03:10;;;;;;;10.15;2.30;;;;;;;;;;5089822;28;20414;-73
2022/10/06 01:05:42;;;;;;;9.95;1.85;;;12.80;99.90;;;;;;5073766;28;20425;-73
2022/10/06 01:08:09;;;;;;;17.00;2.53;;;;;;;;;;5104333;28;20747;-73
2022/10/06 01:10:35;;;;;;;11.10;2.33;;;;;;;;;;5088614;28;20770;-73
2022/10/06 01:13:01;;;;;;;9.80;2.40;;;;;;;;;;5090611;28;20977;-73
2022/10/06 01:15:28;;;;;;;11.23;2.23;;;;;;;;;;5072422;28;20827;-72
2022/10/06 01:18:03;;;;;;;11.63;2.35;;;13.10;99.90;;;;;;5072161;28;20917;-73
2022/10/06 01:20:29;;;;;;;12.32;2.17;;;12.70;99.90;;;;;;5072288;28;20509;-73
2022/10/06 01:23:00;;;;;;;10.55;2.53;;;;;;;;;;5105931;28;20417;-73
2022/10/06 01:25:27;;;;;;;9.18;2.22;;;;;;;;;;5072915;28;20467;-73
2022/10/06 01:27:54;;;;;;;11.43;2.25;;;12.70;99.90;;;;;;5105657;28;20952;-73
2022/10/06 01:30:26;;;;;;;12.82;2.22;;;;;;;;;;5106762;28;20428;-73
2022/10/06 01:32:52;;;;;;;7.97;2.00;;;;;;;;;;5072304;28;20420;-73
2022/10/06 01:35:18;;;;;;;8.23;2.10;;;;;;;;;;5089984;28;20406;-73
2022/10/06 01:37:44;;;;;;;8.77;2.33;;;;;;;;;;5084672;28;20559;-73
2022/10/06 01:40:10;;;;;;;11.43;2.17;;;;;;;;;;5051580;28;20982;-73
2022/10/06 01:42:37;;;;;;;13.45;2.65;;;;;;;;;;5068821;28;20419;-73
2022/10/06 01:45:03;;;;;;;10.73;2.30;;;;;;;;;;5068783;28;20907;-74
2022/10/06 01:47:29;;;;;;;13.00;2.55;;;12.70;99.90;;;;;;5051636;28;20506;-75
2022/10/06 01:49:56;;;;;;;15.00;2.55;;;;;;;;;;5084738;28;20629;-74
2022/10/06 01:52:22;;;;;;;7.95;2.17;;;;;;;;;;5068179;28;20432;-74
2022/10/06 01:54:48;;;;;;;12.55;2.13;;;;;;;;;;5069911;28;20403;-75
2022/10/06 01:57:14;;;;;;;12.68;2.20;;;;;;;;;;5067924;28;21113;-75
2022/10/06 01:59:40;;;;;;;8.73;2.25;;;;;;;;;;5071524;28;20991;-75
2022/10/06 02:02:06;;;;;;;8.93;2.17;;;;;;;;;;5055025;28;20948;-74
2022/10/06 02:04:32;;;;;;;14.07;2.33;;;;;;;;;;5072975;28;20487;-74
2022/10/06 02:06:58;;;;;;;14.13;2.33;;;;;;;;;;5073409;28;20919;-74
2022/10/06 02:09:24;;;;;;;11.77;2.50;;;;;;;;;;5056471;28;20416;-74
2022/10/06 02:11:51;;;;;;;14.23;2.33;;;;;;;;;;5087746;28;20427;-74
2022/10/06 02:14:17;;;;;;;12.93;2.20;;;;;;;;;;5073479;28;20422;-74
2022/10/06 02:16:43;;;;;;;11.27;2.78;;;12.30;99.90;;;;;;5057029;28;20428;-74
2022/10/06 02:19:09;;;;;;;12.00;2.63;;;;;;;;;;5089115;28;20476;-75
2022/10/06 02:21:35;;;;;;;13.30;2.20;;;;;;;;;;5055446;28;20450;-74
2022/10/06 02:24:01;;;;;;;12.50;2.30;;;;;;;;;;5071472;28;20418;-75
2022/10/06 02:26:27;;;;;;;8.95;2.30;;;;;;;;;;5073022;28;20426;-75
2022/10/06 02:28:54;;;;;;;13.10;2.40;;;;;;;;;;5072765;28;20423;-75
2022/10/06 02:31:20;;;;;;;14.18;2.38;;;;;;;;;;5057257;28;20408;-74
2022/10/06 02:33:46;;;;;;;11.77;2.50;;;;;;;;;;5072783;28;20419;-75
2022/10/06 02:36:14;;;;;;;12.68;2.60;;;12.40;99.90;;;;;;5073324;28;20419;-75
2022/10/06 02:38:40;;;;;;;10.55;2.30;;;;;;;;;;5076603;28;20428;-74
2022/10/06 02:41:06;;;;;;;13.40;2.50;;;;;;;;;;5077094;28;20477;-75
2022/10/06 02:43:33;;;;;;;13.45;2.15;;;12.20;99.90;;;;;;5075554;28;20425;-74
2022/10/06 02:46:00;;;;;;;13.60;2.33;;;;;;;;;;5059736;28;20413;-74
2022/10/06 02:48:27;;;;;;;11.15;2.03;;;;;;;;;;5076326;28;20451;-74
2022/10/06 02:51:01;;;;;;;10.88;2.22;;;;;;;;;;5075683;28;20421;-74
2022/10/06 02:53:28;;;;;;;10.15;2.50;;;;;;;;;;5073339;28;20418;-74
2022/10/06 02:56:21;;;;;;;11.50;2.30;;;11.60;99.90;;;;;;5074225;28;20426;-74
2022/10/06 02:58:48;;;;;;;11.60;2.15;;;;;;;;;;5053166;28;20818;-74
2022/10/06 03:01:23;;;;;;;13.75;2.47;;;11.90;99.90;;;;;;5074468;28;20442;-74
2022/10/06 03:03:49;;;;;;;14.60;2.78;;;;;;;;;;5093256;28;20894;-74
2022/10/06 03:06:23;;;;;;;10.98;2.22;;;;;;;;;;5073640;28;20426;-74
2022/10/06 03:08:52;;;;;;;12.63;2.20;;;;;;;;;;5075767;28;20421;-73
2022/10/06 03:11:19;;;;;;;9.37;1.90;;;11.70;99.90;;;;;;5075958;28;20606;-74
2022/10/06 03:13:46;;;;;;;10.52;2.15;;;;;;;;;;5073221;28;20425;-74
2022/10/06 03:16:18;;;;;;;11.05;2.00;;;;;;;;;;5074960;28;20426;-74
2022/10/06 03:18:45;;;;;;;8.48;2.00;;;;;;;;;;5075124;28;20446;-74
2022/10/06 03:21:14;;;;;;;12.93;2.30;;;;;;;;;;5075071;28;20421;-74
2022/10/06 03:23:42;;;;;;;11.95;2.35;;;;;;;;;;5091151;28;20414;-74
2022/10/06 03:26:08;;;;;;;9.95;1.92;;;;;;;;;;5106962;28;20418;-74
2022/10/06 03:28:34;;;;;;;14.07;2.45;;;;;;;;;;5075671;28;20429;-74
2022/10/06 03:31:01;;;;;;;8.80;1.70;;;11.80;99.90;;;;;;5092320;28;20432;-75
2022/10/06 03:33:28;;;;;;;11.63;2.22;;;;;;;;;;5075368;28;20488;-74
2022/10/06 03:35:58;;;;;;;10.53;2.27;;;;;;;;;;5074023;28;20434;-74
2022/10/06 03:38:24;;;;;;;11.25;2.20;;;;;;;;;;5073131;28;20925;-74
2022/10/06 03:40:50;;;;;;;12.10;2.17;;;;;;;;;;5057331;28;20422;-74
2022/10/06 03:43:16;;;;;;;8.38;2.10;;;;;;;;;;5092571;28;20743;-74
2022/10/06 03:45:42;;;;;;;9.95;2.25;;;;;;;;;;5075280;28;20433;-74
2022/10/06 03:48:08;;;;;;;7.30;1.70;;;;;;;;;;5073527;28;21402;-74
2022/10/06 03:50:34;;;;;;;9.90;2.17;;;;;;;;;;5074269;28;20483;-74
2022/10/06 03:53:00;;;;;;;8.25;1.90;;;;;;;;;;5073030;28;20422;-75
2022/10/06 03:55:26;;;;;;;12.90;2.38;;;;;;;;;;5078605;28;20431;-74
2022/10/06 03:57:52;;;;;;;12.13;2.17;;;;;;;;;;5063989;28;20993;-75
2022/10/06 04:00:18;;;;;;;11.07;1.88;;;;;;;;;;5075003;28;20405;-75
2022/10/06 04:02:44;;;;;;;9.73;1.88;;;;;;;;;;5070520;28;20945;-74
2022/10/06 04:05:10;;;;;;;11.23;2.37;;;;;;;;;;5073718;28;20601;-74
2022/10/06 04:07:36;;;;;;;9.55;2.25;;;;;;;;;;5073367;28;20434;-74
2022/10/06 04:10:03;;;;;;;12.45;2.50;;;;;;;;;;5074318;28;20925;-74
2022/10/06 04:12:29;;;;;;;11.25;2.50;;;;;;;;;;5107492;28;20410;-74
2022/10/06 04:14:55;;;;;;;10.13;2.20;;;;;;;;;;5073166;28;20417;-75
2022/10/06 04:17:21;;;;;;;10.75;2.13;;;;;;;;;;5073034;28;20432;-74
2022/10/06 04:19:47;;;;;;;10.63;2.10;;;;;;;;;;5072961;28;20494;-75
2022/10/06 04:22:13;;;;;;;9.33;2.00;;;;;;;;;;5073479;28;20505;-74
2022/10/06 04:24:39;;;;;;;9.25;2.15;;;;;;;;;;5073304;28;20409;-75
2022/10/06 04:29:49;;;;;;;9.73;2.25;;;;;;;;;;5106385;28;20421;-75
2022/10/06 04:32:15;;;;;;;11.80;2.22;;;;;;;;;;5057398;28;20433;-75
2022/10/06 04:34:41;;;;;;;11.02;1.98;;;;;;;;;;5090603;28;20513;-75
2022/10/06 04:37:09;;;;;;;12.20;2.60;;;;;;;;;;5086572;28;20432;-75
2022/10/06 04:39:36;;;;;;;14.25;2.35;;;;;;;;;;5069374;28;20419;-75
2022/10/06 04:42:02;;;;;;;9.15;2.22;;;;;;;;;;5063933;28;20418;-76
2022/10/06 04:44:28;;;;;;;8.80;2.13;;;;;;;;;;5072339;28;20449;-76
2022/10/06 04:46:55;;;;;;;12.48;2.40;;;;;;;;;;5079568;28;20432;-76
2022/10/06 04:49:21;;;;;;;10.27;2.70;;;;;;;;;;5069746;28;20423;-75
2022/10/06 04:51:48;;;;;;;12.30;2.55;;;;;;;;;;5036890;28;20423;-75
2022/10/06 04:54:14;;;;;;;9.50;2.30;;;;;;;;;;5067627;28;20422;-76
2022/10/06 04:56:40;;;;;;;9.57;2.20;;;;;;;;;;5070641;28;20411;-75
2022/10/06 04:59:06;;;;;;;13.00;2.03;;;;;;;;;;5070049;28;20450;-76
2022/10/06 05:01:35;;;;;;;9.20;2.22;;;11.50;99.90;;;;;;5069335;28;20489;-75
2022/10/06 05:04:02;;;;;;;9.88;2.22;;;;;;;;;;5067628;28;20423;-74
2022/10/06 05:06:29;;;;;;;13.00;2.53;;;;;;;;;;5101758;28;20510;-75
2022/10/06 05:09:01;;;;;;;14.98;2.38;;;11.30;99.90;;;;;;5053456;28;20423;-75
2022/10/06 05:11:27;;;;;;;11.57;2.53;;;;;;;;;;5070405;28;20411;-75
2022/10/06 05:13:55;;;;;;;12.27;2.75;;;11.40;99.90;;;;;;5067699;28;20430;-76
2022/10/06 05:16:22;;;;;;;12.00;2.58;;;;;;;;;;5067993;28;20439;-75
2022/10/06 05:18:48;;;;;;;11.23;2.17;;;;;;;;;;5065596;28;20432;-76
2022/10/06 05:21:15;;;;;;;12.38;2.40;;;;;;;;;;5069381;28;20565;-76
2022/10/06 05:23:43;;;;;;;13.10;2.70;;;;;;;;;;5069789;28;20479;-76
2022/10/06 05:26:15;;;;;;;13.25;2.60;;;;;;;;;;5066800;28;20412;-77
2022/10/06 05:28:41;;;;;;;14.48;2.83;;;;;;;;;;5067309;28;20985;-76
2022/10/06 05:31:11;;;;;;;11.73;2.45;;;;;;;;;;5068622;28;20938;-77
2022/10/06 05:33:37;;;;;;;10.00;2.40;;;;;;;;;;5068633;28;20451;-78
2022/10/06 05:36:19;;;;;;;11.63;2.20;;;11.60;99.90;;;;;;5067904;28;20411;-78
2022/10/06 05:38:45;;;;;;;11.13;2.50;;;;;;;;;;5072361;28;20743;-78
2022/10/06 05:41:15;;;;;;;11.60;2.90;;;11.10;99.90;;;;;;5073357;28;20401;-78
2022/10/06 05:43:41;;;;;;;13.45;2.60;;;;;;;;;;5071309;28;20418;-79
2022/10/06 05:46:11;;;;;;;12.45;2.22;;;;;;;;;;5069034;28;20453;-79
2022/10/06 05:48:37;;;;;;;12.75;2.47;;;;;;;;;;5073739;28;20425;-72
2022/10/06 05:51:05;;;;;;;13.57;2.50;;;;;;;;;;5066886;28;20415;-71
2022/10/06 05:53:32;;;;;;;12.03;2.80;;;;;;;;;;5096031;28;20421;-72
2022/10/06 05:56:08;;;;;;;11.80;2.35;;;;;;;;;;5088500;28;20481;-72
2022/10/06 05:58:35;;;;;;;13.00;2.47;;;11.60;99.90;;;;;;5087905;28;20913;-72
2022/10/06 06:01:05;;;;;;;16.00;3.03;;;;;;;;;;5071706;28;20456;-72
2022/10/06 06:03:31;;;;;;;13.47;2.47;;;;;;;;;;5071422;28;20497;-73
2022/10/06 06:05:57;;;;;;;11.30;2.35;;;;;;;;;;5070919;28;20422;-72
2022/10/06 06:08:23;;;;;;;14.50;2.53;;;;;;;;;;5073773;28;20402;-72
2022/10/06 06:10:49;;;;;;;15.10;2.72;;;;;;;;;;5089560;28;20421;-71
2022/10/06 06:13:19;;;;;;;16.55;2.60;;;;;;;;;;5056247;28;20813;-72
2022/10/06 06:18:41;;;;;;;13.48;2.65;;;;;;;;;;5062639;28;20433;-72
2022/10/06 06:21:07;;;;;;;11.10;2.42;;;;;;;;;;5072943;28;20408;-72
2022/10/06 06:23:39;;;;;;;12.83;2.40;;;11.50;99.90;;;;;;5086796;28;20418;-72
2022/10/06 06:26:06;;;;;;;13.98;2.80;;;;;;;;;;5104462;28;20456;-72
2022/10/06 06:28:34;;;;;;;11.10;2.35;;;;;;;;;;5070859;28;20437;-72
2022/10/06 06:31:06;;;;;;;12.18;3.08;;;;;;;;;;5085969;28;20812;-72
2022/10/06 06:33:33;;;;;;;13.90;2.60;;;;;;;;;;5070639;28;20505;-72
2022/10/06 06:36:02;;;;;;;11.98;2.50;;;;;;;;;;5085622;28;20762;-72
2022/10/06 06:38:29;;;;;;;13.35;2.88;;;11.90;99.90;;;;;;5071274;28;20417;-71
2022/10/06 06:40:55;;;;;;;13.15;2.60;;;;;;;;;;5081923;28;20421;-72
2022/10/06 06:43:22;;;;;;;11.15;2.75;;;;;;;;;;5040474;28;20414;-72
2022/10/06 06:45:48;;;;;;;15.05;2.50;;;;;;;;;;5059030;28;20402;-71
2022/10/06 06:48:15;;;;;;;10.70;2.55;;;;;;;;;;5084912;28;20520;-72
2022/10/06 06:50:41;;;;;;;13.40;2.63;;;;;;;;;;5073263;28;20452;-72
2022/10/06 06:53:07;;;;;;;9.90;2.40;;;;;;;;;;5105947;28;20505;-72
2022/10/06 06:55:33;;;;;;;11.93;2.63;;;;;;;;;;5070464;28;20441;-72
2022/10/06 06:57:59;;;;;;;12.40;2.80;;;;;;;;;;5053376;28;20769;-71
2022/10/06 07:00:25;;;;;;;13.63;2.47;;;;;;;;;;5071722;28;20422;-73
2022/10/06 07:02:55;;;;;;;15.68;2.80;;;;;;;;;;5073351;28;20426;-72
2022/10/06 07:05:21;;;;;;;13.57;2.72;;;;;;;;;;5075662;28;20421;-72
2022/10/06 07:07:47;;;;;;;14.65;2.95;;;;;;;;;;5080369;28;20435;-72
2022/10/06 07:10:13;;;;;;;13.88;2.92;;;;;;;;;;5078426;28;20985;-72
2022/10/06 07:12:39;;;;;;;9.33;2.43;;;;;;;;;;5071781;28;20440;-72
2022/10/06 07:26:06;;;;;;;14.23;2.70;;;13.30;99.90;;;;;;5107819;28;20418;-72
2022/10/06 07:28:32;;;;;;;10.75;2.38;;;;;;;;;;5087794;28;20408;-71
2022/10/06 07:30:59;;;;;;;12.48;2.83;;;;;;;;;;5095888;28;20431;-72
2022/10/06 07:33:31;;;;;;;16.95;2.83;;;;;;;;;;5058835;28;20559;-72
2022/10/06 07:35:57;;;;;;;12.63;2.65;;;;;;;;;;5087837;28;20424;-72
2022/10/06 07:38:24;;;;;;;12.85;2.75;;;;;;;;;;5090238;28;20426;-72
2022/10/06 07:40:57;;;;;;;15.18;2.90;;;;;;;;;;5082746;28;20467;-72
2022/10/06 07:43:23;;;;;;;12.60;2.65;;;;;;;;;;5101441;28;20423;-71
2022/10/06 07:45:50;;;;;;;13.05;2.90;;;;;;;;;;5073673;28;20465;-72
2022/10/06 07:48:21;;;;;;;10.57;2.30;;;14.10;99.90;;;;;;5075521;28;20605;-72
2022/10/06 07:50:49;;;;;;;10.27;2.30;;;;;;;;;;5083587;28;20414;-72
2022/10/06 07:53:16;;;;;;;12.07;2.53;;;;;;;;;;5071902;28;20456;-72
2022/10/06 07:55:44;;;;;;;11.35;2.60;;;;;;;;;;5074829;28;20425;-72
2022/10/06 07:58:15;;;;;;;9.68;2.30;;;14.20;99.90;;;;;;5072596;28;20437;-73
2022/10/06 08:00:41;;;;;;;10.35;2.50;;;;;;;;;;5104584;28;20914;-72
2022/10/06 08:03:08;;;;;;;12.02;2.50;;;;;;;;;;5077381;28;20418;-72
2022/10/06 08:05:33;;;;;;;14.13;2.45;;;14.70;99.90;;;;;;5074691;28;20461;-72
2022/10/06 08:07:59;;;;;;;12.15;2.35;;;;;;;;;;5072954;28;20450;-72
2022/10/06 08:10:25;;;;;;;13.68;2.83;;;;;;;;;;5085330;28;20439;-72
2022/10/06 08:12:52;;;;;;;13.35;2.75;;;;;;;;;;5070066;28;20426;-71
2022/10/06 08:15:18;;;;;;;12.47;2.40;;;14.50;99.90;;;;;;5077710;28;20471;-72
2022/10/06 08:17:44;;;;;;;11.10;2.35;;;;;;;;;;5104422;28;20940;-71
2022/10/06 08:20:11;;;;;;;13.63;2.90;;;14.60;99.90;;;;;;5088686;28;20418;-71
2022/10/06 08:22:38;;;;;;;12.57;2.30;;;;;;;;;;5073549;28;20405;-71
2022/10/06 08:25:06;;;;;;;10.38;2.35;;;;;;;;;;5090322;28;20818;-71
2022/10/06 08:27:33;;;;;;;10.35;2.33;;;15.00;99.90;;;;;;5056719;28;20436;-71
2022/10/06 08:29:58;;;;;;;10.18;2.28;;;15.00;99.90;;;;;;5091549;28;20417;-71
2022/10/06 08:32:24;;;;;;;11.07;2.60;;;14.90;99.90;;;;;;5073680;28;20414;-71
2022/10/06 08:34:50;;;;;;;10.33;2.17;;;;;;;;;;5055371;28;20865;-72
2022/10/06 08:37:22;;;;;;;10.83;2.30;;;15.00;99.90;;;;;;5068724;28;20426;-72
2022/10/06 08:39:52;;;;;;;13.18;2.97;;;15.40;99.90;;;;;;5072401;28;20468;-71
2022/10/06 08:42:40;;;;;;;15.10;2.85;;;15.30;99.90;;;;;;5107283;28;20414;-72
2022/10/06 08:45:13;;;;;;;13.50;2.42;;;15.20;99.90;;;;;;5075457;28;20421;-72
2022/10/06 08:47:44;;;;;;;9.35;2.10;;;;;;;;;;5072675;28;20804;-72
2022/10/06 08:50:11;;;;;;;9.67;2.43;;;;;;;;;;5105049;28;20443;-72
2022/10/06 08:52:45;;;;;;;13.00;2.20;;;15.70;99.90;;;;;;5046766;28;20425;-72
2022/10/06 08:55:25;;;;;;;10.88;2.20;;;15.50;99.90;;;;;;5102175;28;20467;-72
2022/10/06 08:58:31;;;;;;;11.38;2.08;;;15.70;99.90;;;;;;5068045;28;20429;-73
2022/10/06 09:01:17;;;;;;;9.00;2.17;;;;;;;;;;5085917;28;20502;-73
2022/10/06 09:03:48;;;;;;;13.10;2.43;;;;;;;;;;5070511;28;20816;-73
2022/10/06 09:06:30;;;;;;;9.50;2.22;;;15.90;99.90;;;;;;5071616;28;20432;-73
2022/10/06 09:09:00;;;;;;;10.50;2.20;;;;;;;;;;5077937;28;20468;-72
2022/10/06 09:11:44;;;;;;;8.73;2.00;;;;;;;;;;5068063;28;20493;-72
2022/10/06 09:14:14;;;;;;;9.30;2.13;;;;;;;;;;5074875;28;20417;-72
2022/10/06 09:16:42;;;;;;;10.85;2.28;;;;;;;;;;5099103;28;20422;-73
2022/10/06 09:19:14;;;;;;;9.65;2.50;;;16.30;99.90;;;;;;5085559;28;20422;-73
2022/10/06 09:21:46;;;;;;;11.00;2.33;;;;;;;;;;5053912;28;20413;-72
2022/10/06 09:24:15;;;;;;;8.93;1.80;;;16.10;99.90;;;;;;5071309;28;20437;-74
2022/10/06 09:26:44;;;;;;;14.40;2.60;;;16.20;99.90;;;;;;5071193;28;20440;-72
2022/10/06 09:29:10;;;;;;;11.02;2.45;;;;;;;;;;5106482;28;20813;-72
2022/10/06 09:31:37;;;;;;;8.80;2.40;;;;;;;;;;5071684;28;20782;-73
2022/10/06 09:34:35;;;;;;;10.63;2.20;;;16.70;99.90;;;;;;5088053;28;20475;-73
2022/10/06 09:37:08;;;;;;;10.52;2.05;;;16.50;99.90;;;;;;5103192;28;20418;-72
2022/10/06 09:39:39;;;;;;;12.52;2.35;;;;;;;;;;5065426;28;20505;-72
2022/10/06 09:42:12;;;;;;;10.20;2.05;;;;;;;;;;5100306;28;20893;-72
2022/10/06 09:44:51;;;;;;;9.30;2.00;;;16.50;99.90;;;;;;5068094;28;20414;-72
2022/10/06 09:47:44;;;;;;;8.60;2.28;;;16.40;99.90;;;;;;5067967;28;20773;-72
2022/10/06 09:50:16;;;;;;;11.75;2.17;;;;;;;;;;5082622;28;20430;-72
2022/10/06 09:52:59;;;;;;;9.03;2.00;;;16.60;99.90;;;;;;5068920;28;20417;-71
2022/10/06 09:55:27;;;;;;;10.15;2.45;;;;;;;;;;5068907;28;20432;-73
2022/10/06 09:57:55;;;;;;;10.77;2.28;;;16.40;99.90;;;;;;5069702;28;20430;-72
2022/10/06 10:00:27;;;;;;;11.23;2.40;;;;;;;;;;5072809;28;20774;-73
2022/10/06 10:03:01;;;;;;;11.82;2.38;;;16.40;99.90;;;;;;5086402;28;20478;-71
2022/10/06 10:05:36;;;;;;;10.00;2.50;;;16.40;99.90;;;;;;5045372;28;20474;-72
2022/10/06 10:08:29;;;;;;;11.68;2.25;;;;;;;;;;5067792;28;20500;-72
2022/10/06 10:13:57;;;;;;;10.18;2.03;;;;;;;;;;5037801;28;20424;-72
2022/10/06 10:16:33;;;;;;;10.38;2.30;;;16.90;99.90;;;;;;5070333;28;20467;-72
2022/10/06 10:18:59;;;;;;;9.70;2.10;;;;;;;;;;5089022;28;20997;-72
2022/10/06 10:21:28;;;;;;;7.80;1.83;;;;;;;;;;5075732;28;20402;-73
2022/10/06 10:23:58;;;;;;;14.68;2.72;;;;;;;;;;5091712;28;20419;-72
2022/10/06 10:26:49;;;;;;;8.48;1.70;;;17.10;99.90;;;;;;5074466;28;20515;-72
2022/10/06 10:29:20;;;;;;;8.75;1.67;;;16.90;99.90;;;;;;5073294;28;20414;-72
2022/10/06 10:32:25;;;;;;;8.77;1.70;;;16.40;99.90;;;;;;5071966;28;20429;-72
2022/10/06 10:35:00;;;;;;;9.48;2.10;;;16.80;99.90;;;;;;5075638;28;20394;-72
2022/10/06 10:37:48;;;;;;;8.50;1.80;;;16.50;99.90;;;;;;5074003;28;20468;-72
2022/10/06 10:40:28;;;;;;;9.15;1.77;;;;;;;;;;5055586;28;20430;-72
2022/10/06 10:43:24;;;;;;;7.80;1.93;;;16.30;99.90;;;;;;5075212;28;20424;-72
2022/10/06 10:45:59;;;;;;;9.68;1.70;;;16.40;99.90;;;;;;5071681;28;20421;-72
2022/10/06 10:48:41;;;;;;;6.60;1.70;;;;;;;;;;5072908;28;20769;-72
2022/10/06 10:51:12;;;;;;;9.75;1.80;;;;;;;;;;5087979;28;20976;-72
2022/10/06 10:53:39;;;;;;;7.80;2.10;;;;;;;;;;5074205;28;20485;-72
2022/10/06 10:56:09;;;;;;;8.02;2.10;;;16.30;99.90;;;;;;5076200;28;20409;-72
2022/10/06 10:58:37;;;;;;;8.75;1.90;;;;;;;;;;5057336;28;20928;-71
2022/10/06 11:01:12;;;;;;;7.43;1.60;;;;;;;;;;5069618;28;20429;-72
2022/10/06 11:03:38;;;;;;;8.60;1.55;;;;;;;;;;5093317;28;20401;-72
2022/10/06 11:06:55;;;;;;;7.40;1.67;;;17.00;99.90;;;;;;5088752;28;20417;-72
2022/10/06 11:09:35;;;;;;;7.40;1.67;;;;;;;;;;5092139;28;20406;-71
2022/10/06 11:12:14;;;;;;;9.15;1.60;;;;;;;;;;5102468;28;20433;-71
2022/10/06 11:14:49;;;;;;;9.45;1.90;;;17.20;99.90;;;;;;5090608;28;20473;-70
2022/10/06 11:17:31;;;;;;;6.32;1.58;;;;;;;;;;5058943;28;20429;-70
2022/10/06 11:20:10;;;;;;;7.90;1.58;;;;;;;;;;5075287;28;20505;-72
2022/10/06 11:22:50;;;;;;;8.53;1.73;;;17.30;99.90;;;;;;5068458;28;20701;-71
2022/10/06 11:25:25;;;;;;;7.57;1.43;;;17.50;99.90;;;;;;5057113;28;20562;-71
2022/10/06 11:28:11;;;;;;;6.55;1.40;;;;;;;;;;5058480;28;20480;-70
2022/10/06 11:30:44;;;;;;;5.97;1.63;;;;;;;;;;5073276;28;20427;-72
2022/10/06 11:33:22;;;;;;;6.40;1.50;;;17.70;99.90;;;;;;5107488;28;20564;-72
2022/10/06 11:35:48;;;;;;;5.65;1.70;;;17.60;99.90;;;;;;5073965;28;20426;-72
2022/10/06 11:38:36;;;;;;;9.70;1.60;;;17.70;99.90;;;;;;5055961;28;20425;-71
2022/10/06 11:41:18;;;;;;;5.85;1.50;;;17.70;99.90;;;;;;5069493;28;20637;-73
2022/10/06 11:44:03;;;;;;;7.25;1.67;;;;;;;;;;5071918;28;20420;-72
2022/10/06 11:46:47;;;;;;;5.50;1.50;;;17.90;99.90;;;;;;5067910;28;20425;-72
2022/10/06 11:49:28;;;;;;;6.72;1.52;;;18.20;99.90;;;;;;5072429;28;20422;-72
2022/10/06 11:52:14;;;;;;;7.85;1.50;;;18.50;99.90;;;;;;5051123;28;20414;-72
2022/10/06 11:54:42;;;;;;;5.30;1.50;;;18.50;99.90;;;;;;5070713;28;20444;-73
2022/10/06 11:57:25;;;;;;;6.95;1.52;;;;;;;;;;5070932;28;22870;-72
2022/10/06 12:00:03;;;;;;;7.43;1.70;;;18.60;99.90;;;;;;5071800;28;20497;-73
2022/10/06 12:02:31;;;;;;;7.53;1.50;;;18.70;99.90;;;;;;5071821;28;20909;-73
2022/10/06 12:05:17;;;;;;;7.22;1.63;;;18.20;99.90;;;;;;5057323;28;20436;-73
2022/10/06 12:07:56;;;;;;;5.97;1.40;;;18.20;99.90;;;;;;5055666;28;20415;-72
2022/10/06 12:10:28;;;;;;;7.97;1.60;;;18.60;99.90;;;;;;5107213;28;20421;-73
2022/10/06 12:13:22;;;;;;;6.95;1.50;;;18.60;99.90;;;;;;5072560;28;20696;-72
2022/10/06 12:16:00;;;;;;;6.13;1.40;;;18.60;99.90;;;;;;5056031;28;20468;-73
2022/10/06 12:18:48;;;;;;;6.82;1.35;;;18.30;99.90;;;;;;5071991;28;20455;-73
2022/10/06 12:21:32;;;;;;;7.45;1.40;;;18.30;99.90;;;;;;5067178;28;20434;-73
2022/10/06 12:24:14;;;;;;;8.15;1.77;;;18.30;99.90;;;;;;5088473;28;20436;-73
2022/10/06 12:26:43;;;;;;;3.83;1.40;;;18.30;99.90;;;;;;5099735;28;20418;-73
2022/10/06 12:29:41;;;;;;;6.55;1.40;;;18.40;99.90;;;;;;5054792;28;21088;-73
2022/10/06 12:32:15;;;;;;;7.20;1.58;;;18.40;99.90;;;;;;5070251;28;20410;-73
2022/10/06 12:34:49;;;;;;;7.72;1.70;;;18.60;99.90;;;;;;5070371;28;20413;-72
2022/10/06 12:37:38;;;;;;;7.32;1.48;;;18.70;99.90;;;;;;5067954;28;20425;-74
2022/10/06 12:40:48;;;;;;;7.65;1.60;;;18.90;99.90;;;;;;5070682;28;20946;-73
2022/10/06 12:43:13;;;;;;;6.25;1.65;;;18.90;99.90;;;;;;5070218;28;20426;-74
2022/10/06 12:45:47;;;;;;;6.78;1.60;;;19.00;99.90;;;;;;5056164;28;20429;-73
2022/10/06 12:48:39;;;;;;;8.67;1.60;;;18.60;99.90;;;;;;5103846;28;20422;-73
2022/10/06 12:51:29;;;;;;;7.83;1.90;;;18.50;99.90;;;;;;5069304;28;20940;-73
2022/10/06 12:54:10;;;;;;;6.65;1.67;;;18.60;99.90;;;;;;5082343;28;20481;-73
2022/10/06 12:56:38;;;;;;;6.57;1.90;;;18.80;99.90;;;;;;5073094;28;20417;-74
2022/10/06 12:59:25;;;;;;;5.47;1.43;;;18.70;99.90;;;;;;5106598;28;20460;-73
2022/10/06 13:01:57;;;;;;;8.67;1.60;;;18.30;99.90;;;;;;5052897;28;20418;-73
2022/10/06 13:04:31;;;;;;;5.90;1.63;;;;;;;;;;5070366;28;20424;-73
2022/10/06 13:06:57;;;;;;;6.97;1.60;;;;;;;;;;5052243;28;20430;-73
2022/10/06 13:09:23;;;;;;;7.33;1.50;;;;;;;;;;5085807;28;20777;-74
2022/10/06 13:11:49;;;;;;;8.07;1.77;;;;;;;;;;5070322;28;20435;-73
2022/10/06 13:14:15;;;;;;;9.93;1.80;;;;;;;;;;5069215;28;21545;-72
2022/10/06 13:16:44;;;;;;;10.05;2.05;;;;;;;;;;5058460;28;20417;-72
2022/10/06 13:19:15;;;;;;;10.97;1.87;;;;;;;;;;5076453;28;20508;-73
2022/10/06 13:21:41;;;;;;;8.53;1.73;;;17.30;99.90;;;;;;5069533;28;20477;-73
2022/10/06 13:24:12;;;;;;;6.70;1.90;;;17.30;99.90;;;;;;5068360;28;20505;-72
2022/10/06 13:26:39;;;;;;;6.90;1.52;;;17.30;99.90;;;;;;5053525;28;20414;-72
2022/10/06 13:29:15;;;;;;;10.65;2.00;;;;;;;;;;5056519;28;20770;-71
2022/10/06 13:31:45;;;;;;;6.28;1.77;;;;;;;;;;5087857;28;20426;-72
2022/10/06 13:34:11;;;;;;;7.28;1.95;;;;;;;;;;5075934;28;20423;-72
2022/10/06 13:36:39;;;;;;;5.60;1.70;;;17.40;99.90;;;;;;5074167;28;20800;-71
2022/10/06 13:39:11;;;;;;;8.27;1.70;;;;;;;;;;5074974;28;20449;-71
2022/10/06 13:42:04;;;;;;;6.18;1.50;;;17.20;99.90;;;;;;5073131;28;20479;-72
2022/10/06 13:44:33;;;;;;;7.73;1.80;;;;;;;;;;5068045;28;20417;-72
2022/10/06 13:47:03;;;;;;;7.47;1.75;;;17.40;99.90;;;;;;5093861;28;20414;-72
2022/10/06 13:49:39;;;;;;;6.72;1.90;;;;;;;;;;5090975;28;20456;-71
2022/10/06 13:52:19;;;;;;;10.68;1.90;;;17.20;99.90;;;;;;5076631;28;20420;-72
2022/10/06 13:54:56;;;;;;;9.77;1.88;;;17.30;99.90;;;;;;5111641;28;20494;-72
2022/10/06 13:57:34;;;;;;;11.88;2.15;;;;;;;;;;5072911;28;20426;-72
2022/10/06 14:00:19;;;;;;;7.80;1.88;;;;;;;;;;5077844;28;20421;-73
2022/10/06 14:02:48;;;;;;;11.63;1.98;;;;;;;;;;5107017;28;20445;-72
2022/10/06 14:05:20;;;;;;;7.82;1.77;;;17.30;99.90;;;;;;5075146;28;20413;-72
2022/10/06 14:07:47;;;;;;;6.78;1.67;;;;;;;;;;5072083;28;20421;-73
2022/10/06 14:10:43;;;;;;;8.75;1.80;;;17.00;99.90;;;;;;5073179;28;20410;-72
2022/10/06 14:13:17;;;;;;;8.35;1.98;;;17.20;99.90;;;;;;5033054;28;20422;-72
2022/10/06 14:16:05;;;;;;;10.63;1.70;;;17.00;99.90;;;;;;5064988;28;20948;-72
2022/10/06 14:18:34;;;;;;;8.50;1.80;;;;;;;;;;5071144;28;20449;-72
2022/10/06 14:21:35;;;;;;;8.38;1.80;;;17.00;99.90;;;;;;5074409;28;20424;-72
2022/10/06 14:24:04;;;;;;;9.93;1.85;;;;;;;;;;5047710;28;20422;-73
2022/10/06 14:26:33;;;;;;;8.05;2.10;;;17.30;99.90;;;;;;5057189;28;20424;-73
2022/10/06 14:28:59;;;;;;;8.10;2.22;;;;;;;;;;5074458;28;20422;-73
2022/10/06 14:31:27;;;;;;;8.98;2.03;;;;;;;;;;5090436;28;20423;-73
2022/10/06 14:33:55;;;;;;;8.77;1.90;;;16.70;99.90;;;;;;5074276;28;20421;-73
2022/10/06 14:36:28;;;;;;;9.27;1.67;;;;;;;;;;5073516;28;20453;-73